Time;durP1;ratioP1;P1;durP2;ratioP2;P2;SDS_P1;SDS_P2;PMS_P1;PMS_P2;Temp;Humidity;BMP_temperature;BMP_pressure;BME280_temperature;BME280_humidity;BME280_pressure;Samples;Min_cycle;Max_cycle;Signal;HPM_P1;HPM_P2
2023/06/22 00:02:17;;;;;;;3.75;2.08;;;20.90;1.00;;;;;;5218582;23;20057;-72
2023/06/22 00:04:51;;;;;;;7.38;2.42;;;20.90;1.00;;;;;;5151684;28;20045;-72
2023/06/22 00:07:23;;;;;;;5.35;2.47;;;20.80;1.00;;;;;;5166550;28;20037;-71
2023/06/22 00:09:55;;;;;;;8.50;2.53;;;20.80;1.00;;;;;;5180817;28;20060;-72
2023/06/22 00:12:29;;;;;;;4.38;1.70;;;20.80;1.00;;;;;;5181782;28;20260;-73
2023/06/22 00:15:00;;;;;;;4.65;2.42;;;20.70;1.00;;;;;;5162979;28;20038;-72
2023/06/22 00:17:37;;;;;;;6.30;2.30;;;20.70;1.00;;;;;;5176220;28;20492;-72
2023/06/22 00:20:10;;;;;;;3.40;2.67;;;20.70;1.00;;;;;;5153262;28;20029;-72
2023/06/22 00:22:42;;;;;;;5.55;2.13;;;20.70;1.00;;;;;;5148511;28;20033;-73
2023/06/22 00:25:19;;;;;;;5.15;2.65;;;20.60;1.00;;;;;;5148160;28;20044;-72
2023/06/22 00:27:50;;;;;;;3.92;2.42;;;20.60;1.00;;;;;;5144689;28;20509;-73
2023/06/22 00:30:27;;;;;;;5.88;2.70;;;20.50;1.00;;;;;;5169483;28;20076;-72
2023/06/22 00:32:59;;;;;;;3.70;2.42;;;20.60;1.00;;;;;;5165053;28;20044;-72
2023/06/22 00:35:30;;;;;;;5.90;2.47;;;20.50;1.00;;;;;;5162288;28;20045;-71
2023/06/22 00:38:04;;;;;;;4.50;1.85;;;20.40;1.00;;;;;;5180997;28;20052;-72
2023/06/22 00:40:35;;;;;;;2.87;2.13;;;20.30;1.00;;;;;;5185934;28;20041;-72
2023/06/22 00:43:09;;;;;;;4.68;2.65;;;20.30;1.00;;;;;;5185800;28;20035;-72
2023/06/22 00:45:43;;;;;;;4.28;2.40;;;20.20;1.00;;;;;;5182484;28;20063;-72
2023/06/22 00:48:15;;;;;;;5.22;2.30;;;20.20;1.30;;;;;;5186111;28;20037;-72
2023/06/22 00:50:50;;;;;;;6.15;2.50;;;20.10;27.00;;;;;;5186556;28;20223;-72
2023/06/22 00:53:23;;;;;;;3.53;2.20;;;20.00;65.30;;;;;;5185854;28;20352;-71
2023/06/22 00:55:55;;;;;;;3.00;2.33;;;20.00;53.80;;;;;;5184596;28;20334;-72
2023/06/22 00:58:27;;;;;;;5.82;2.33;;;20.00;99.90;;;;;;5185380;28;20067;-72
2023/06/22 01:01:00;;;;;;;3.25;2.13;;;20.00;99.90;;;;;;5214897;23;20306;-72
2023/06/22 01:03:31;;;;;;;4.57;2.55;;;20.00;99.90;;;;;;5292185;22;20053;-72
2023/06/22 01:06:13;;;;;;;5.25;3.00;;;19.90;99.90;;;;;;5195992;28;20041;-72
2023/06/22 01:09:15;;;;;;;4.57;2.47;;;19.90;99.90;;;;;;5204152;28;20037;-71
2023/06/22 01:11:57;;;;;;;3.45;2.50;;;19.90;99.90;;;;;;5214466;28;20027;-73
2023/06/22 01:14:40;;;;;;;4.55;2.90;;;19.90;99.90;;;;;;5226273;28;20485;-73
2023/06/22 01:17:16;;;;;;;4.88;2.50;;;19.90;99.90;;;;;;5238620;28;20431;-71
2023/06/22 01:19:59;;;;;;;5.78;3.17;;;19.90;99.90;;;;;;5244574;28;20028;-71
2023/06/22 01:22:40;;;;;;;5.47;2.58;;;19.80;99.90;;;;;;5225467;28;20483;-72
2023/06/22 01:25:19;;;;;;;3.38;2.22;;;19.80;70.60;;;;;;5209072;28;20044;-71
2023/06/22 01:28:05;;;;;;;5.30;2.47;;;19.80;99.90;;;;;;5202618;28;20025;-72
2023/06/22 01:30:39;;;;;;;3.85;2.75;;;19.80;99.90;;;;;;5207751;28;20372;-72
2023/06/22 01:33:15;;;;;;;6.70;2.53;;;19.90;99.90;;;;;;5205536;28;20467;-72
2023/06/22 01:35:46;;;;;;;3.90;2.80;;;19.80;99.90;;;;;;5204945;28;20538;-72
2023/06/22 01:38:17;;;;;;;4.25;2.83;;;19.80;99.90;;;;;;5188312;28;20524;-72
2023/06/22 01:40:53;;;;;;;5.45;2.03;;;19.80;99.90;;;;;;5204552;28;20203;-72
2023/06/22 01:43:26;;;;;;;6.32;3.13;;;19.70;99.90;;;;;;5206428;28;20272;-72
2023/06/22 01:46:04;;;;;;;5.67;2.73;;;19.70;99.90;;;;;;5219743;28;20034;-73
2023/06/22 01:48:41;;;;;;;3.75;2.38;;;19.70;99.90;;;;;;5242801;28;20028;-72
2023/06/22 01:51:13;;;;;;;5.95;2.92;;;19.70;99.90;;;;;;5203986;28;20044;-71
2023/06/22 01:53:45;;;;;;;6.30;2.63;;;19.70;99.90;;;;;;5224867;28;20496;-72
2023/06/22 01:56:18;;;;;;;3.90;2.63;;;19.70;99.90;;;;;;5212210;28;20028;-72
2023/06/22 01:58:58;;;;;;;6.53;3.28;;;19.70;99.90;;;;;;5207412;28;20029;-72
2023/06/22 02:01:45;;;;;;;4.53;2.50;;;19.60;99.90;;;;;;5206374;28;20045;-73
2023/06/22 02:04:31;;;;;;;6.22;2.85;;;19.40;99.90;;;;;;5157631;28;20291;-72
2023/06/22 02:07:13;;;;;;;4.10;2.88;;;19.40;99.90;;;;;;5167402;28;20053;-72
2023/06/22 02:09:52;;;;;;;3.03;2.60;;;19.30;99.90;;;;;;5172712;28;20048;-72
2023/06/22 02:12:29;;;;;;;2.92;2.08;;;19.20;99.90;;;;;;5203439;28;20035;-73
2023/06/22 02:15:00;;;;;;;5.90;3.08;;;19.20;99.90;;;;;;5201888;28;20521;-72
2023/06/22 02:17:33;;;;;;;5.18;2.72;;;19.20;99.90;;;;;;5200500;28;20025;-72
2023/06/22 02:20:12;;;;;;;3.85;2.60;;;19.20;99.90;;;;;;5203231;28;20314;-72
2023/06/22 02:22:46;;;;;;;3.33;2.22;;;19.20;99.90;;;;;;5202490;28;20028;-71
2023/06/22 02:25:20;;;;;;;3.38;2.45;;;19.20;99.90;;;;;;5186876;28;20043;-72
2023/06/22 02:27:51;;;;;;;4.18;2.65;;;19.10;99.90;;;;;;5203895;28;20033;-72
2023/06/22 02:30:22;;;;;;;4.65;3.10;;;19.10;99.90;;;;;;5215922;28;20540;-72
2023/06/22 02:32:59;;;;;;;4.80;2.42;;;19.10;99.90;;;;;;5203399;28;20050;-72
2023/06/22 02:35:31;;;;;;;3.80;3.00;;;19.20;99.90;;;;;;5205124;28;20329;-71
2023/06/22 02:38:04;;;;;;;3.80;2.38;;;19.20;99.90;;;;;;5183594;28;20031;-71
2023/06/22 02:40:35;;;;;;;3.33;2.50;;;19.20;99.90;;;;;;5219673;28;20037;-71
2023/06/22 02:43:10;;;;;;;3.22;2.03;;;19.10;99.90;;;;;;5221097;28;20021;-72
2023/06/22 02:45:41;;;;;;;6.10;2.58;;;19.10;99.90;;;;;;5216594;28;20325;-72
2023/06/22 02:48:13;;;;;;;3.78;2.40;;;19.10;99.90;;;;;;5202746;28;20036;-72
2023/06/22 02:50:45;;;;;;;5.82;2.50;;;19.20;99.90;;;;;;5222996;28;20035;-71
2023/06/22 02:53:20;;;;;;;3.40;2.38;;;19.20;99.90;;;;;;5189406;28;20033;-72
2023/06/22 02:55:54;;;;;;;4.38;2.72;;;19.20;99.90;;;;;;5217366;28;20166;-71
2023/06/22 02:58:28;;;;;;;5.97;2.42;;;19.20;99.90;;;;;;5193899;28;20227;-71
2023/06/22 03:01:04;;;;;;;3.97;2.95;;;19.20;99.90;;;;;;5181308;28;20246;-71
2023/06/22 03:03:36;;;;;;;5.05;2.95;;;19.20;99.90;;;;;;5200854;28;20052;-71
2023/06/22 03:06:07;;;;;;;5.07;2.58;;;19.20;99.90;;;;;;5190930;28;20647;-72
2023/06/22 03:08:38;;;;;;;4.68;2.17;;;19.20;99.90;;;;;;5184761;28;20037;-73
2023/06/22 03:11:11;;;;;;;3.05;2.22;;;19.30;99.90;;;;;;5201013;28;20332;-71
2023/06/22 03:13:43;;;;;;;3.42;2.53;;;19.20;99.90;;;;;;5200960;28;20329;-71
2023/06/22 03:16:20;;;;;;;3.35;2.20;;;19.10;99.90;;;;;;5214445;28;20021;-71
2023/06/22 03:18:53;;;;;;;3.08;2.65;;;19.10;99.90;;;;;;5188889;28;20039;-72
2023/06/22 03:21:30;;;;;;;4.15;2.65;;;18.90;99.90;;;;;;5187896;28;20060;-71
2023/06/22 03:24:01;;;;;;;4.63;2.40;;;18.90;99.90;;;;;;5186788;28;20020;-71
2023/06/22 03:26:34;;;;;;;4.50;2.17;;;18.80;99.90;;;;;;5221538;28;20051;-72
2023/06/22 03:29:08;;;;;;;3.00;2.33;;;18.90;99.90;;;;;;5180845;28;20043;-71
2023/06/22 03:31:42;;;;;;;2.83;2.20;;;18.90;99.90;;;;;;5191344;28;20053;-72
2023/06/22 03:34:13;;;;;;;3.58;2.70;;;18.90;99.90;;;;;;5183943;28;20531;-71
2023/06/22 03:36:49;;;;;;;4.20;2.78;;;18.90;99.90;;;;;;5200341;28;20028;-72
2023/06/22 03:39:21;;;;;;;3.90;2.72;;;18.90;99.90;;;;;;5182356;28;20032;-72
2023/06/22 03:41:54;;;;;;;4.53;2.80;;;19.00;99.90;;;;;;5201847;28;20045;-73
2023/06/22 03:44:26;;;;;;;5.88;3.20;;;19.00;99.90;;;;;;5165230;28;20037;-72
2023/06/22 03:46:59;;;;;;;3.03;2.10;;;19.20;99.90;;;;;;5162570;28;20414;-74
2023/06/22 03:49:34;;;;;;;6.45;2.88;;;19.30;99.90;;;;;;5181560;28;20044;-72
2023/06/22 03:52:08;;;;;;;4.13;2.88;;;19.50;99.90;;;;;;5181913;28;20039;-72
2023/06/22 03:54:45;;;;;;;5.25;3.08;;;19.50;99.90;;;;;;5197525;28;20039;-73
2023/06/22 03:57:16;;;;;;;3.40;2.40;;;19.50;99.90;;;;;;5199657;28;20029;-74
2023/06/22 03:59:50;;;;;;;3.28;2.08;;;19.80;99.90;;;;;;5199730;28;20040;-74
2023/06/22 04:02:21;;;;;;;5.30;2.72;;;19.80;94.00;;;;;;5197282;28;20050;-73
2023/06/22 04:05:01;;;;;;;3.88;2.40;;;19.80;58.40;;;;;;5208991;28;20606;-72
2023/06/22 04:07:37;;;;;;;4.82;2.95;;;19.80;67.90;;;;;;5199287;28;20470;-72
2023/06/22 04:10:11;;;;;;;4.63;2.38;;;19.80;90.40;;;;;;5199050;28;20546;-74
2023/06/22 04:12:42;;;;;;;4.60;2.65;;;19.80;78.20;;;;;;5197316;28;20218;-73
2023/06/22 04:15:16;;;;;;;3.30;2.67;;;20.00;49.80;;;;;;5186970;28;20029;-73
2023/06/22 04:17:50;;;;;;;5.97;2.75;;;20.10;37.50;;;;;;5184930;28;20045;-72
2023/06/22 04:20:22;;;;;;;3.25;2.67;;;20.20;1.00;;;;;;5213363;28;20044;-73
2023/06/22 04:22:54;;;;;;;4.28;2.63;;;20.50;1.00;;;;;;5183824;28;20041;-72
2023/06/22 04:25:30;;;;;;;3.45;2.58;;;20.80;1.00;;;;;;5201457;28;20044;-73
2023/06/22 04:28:12;;;;;;;3.95;2.80;;;21.30;1.00;;;;;;5210053;28;20040;-72
2023/06/22 04:30:46;;;;;;;3.47;2.33;;;21.60;1.00;;;;;;5186009;28;20037;-72
2023/06/22 04:33:20;;;;;;;4.38;2.92;;;22.00;1.00;;;;;;5217689;28;20040;-74
2023/06/22 04:35:52;;;;;;;3.40;2.72;;;22.20;1.00;;;;;;5198014;28;20463;-72
2023/06/22 04:38:25;;;;;;;5.22;2.60;;;22.00;1.00;;;;;;5197821;28;20418;-72
2023/06/22 04:40:56;;;;;;;3.63;2.50;;;21.70;1.00;;;;;;5181541;28;20037;-72
2023/06/22 04:43:30;;;;;;;6.38;2.00;;;21.50;1.00;;;;;;5164831;28;20041;-73
2023/06/22 04:46:03;;;;;;;5.15;2.28;;;21.60;1.00;;;;;;5182287;28;20025;-74
2023/06/22 04:48:34;;;;;;;3.55;2.42;;;21.80;1.00;;;;;;5197472;28;20355;-73
2023/06/22 04:51:05;;;;;;;7.00;2.42;;;21.70;1.00;;;;;;5181701;28;20045;-73
2023/06/22 04:53:41;;;;;;;7.57;3.38;;;21.60;1.00;;;;;;5211305;28;20024;-72
2023/06/22 04:56:12;;;;;;;6.18;3.20;;;21.60;1.00;;;;;;5193915;28;20029;-73
2023/06/22 04:58:48;;;;;;;9.38;2.75;;;21.50;1.00;;;;;;5201032;28;20033;-74
2023/06/22 05:01:22;;;;;;;5.60;2.65;;;21.70;1.00;;;;;;5168489;28;20604;-73
2023/06/22 05:03:56;;;;;;;3.30;2.35;;;22.10;1.00;;;;;;5202148;28;20048;-71
2023/06/22 05:06:29;;;;;;;5.28;2.85;;;22.60;1.00;;;;;;5167510;28;20406;-73
2023/06/22 05:09:05;;;;;;;5.88;2.75;;;23.00;1.00;;;;;;5195981;28;20033;-72
2023/06/22 05:11:37;;;;;;;5.50;2.83;;;23.50;1.00;;;;;;5192664;28;20043;-74
2023/06/22 05:14:10;;;;;;;4.82;2.63;;;24.00;99.90;;;;;;5191309;28;20029;-71
2023/06/22 05:16:42;;;;;;;3.63;2.92;;;24.40;99.90;;;;;;5208773;28;20051;-72
2023/06/22 05:19:14;;;;;;;3.47;2.45;;;24.60;99.90;;;;;;5194705;28;20050;-71
2023/06/22 05:21:45;;;;;;;3.78;2.35;;;24.90;99.90;;;;;;5193486;28;20036;-71
2023/06/22 05:24:17;;;;;;;4.00;2.95;;;25.10;70.00;;;;;;5211619;28;20043;-71
2023/06/22 05:26:51;;;;;;;4.93;2.70;;;25.10;1.00;;;;;;5199569;28;20043;-73
2023/06/22 05:29:22;;;;;;;4.93;2.83;;;25.30;1.00;;;;;;5189820;28;20067;-71
2023/06/22 05:31:54;;;;;;;5.72;2.15;;;25.40;1.00;;;;;;5193967;28;20046;-72
2023/06/22 05:34:31;;;;;;;4.43;3.10;;;25.30;1.00;;;;;;5208776;28;20158;-72
2023/06/22 05:37:09;;;;;;;8.40;3.63;;;25.50;1.00;;;;;;5211428;28;20047;-72
2023/06/22 05:39:41;;;;;;;12.40;2.92;;;25.90;1.00;;;;;;5191001;28;20298;-71
2023/06/22 05:42:15;;;;;;;6.47;3.17;;;25.80;1.00;;;;;;5201276;28;20037;-72
2023/06/22 05:44:47;;;;;;;3.13;2.45;;;25.60;1.00;;;;;;5192207;28;20205;-71
2023/06/22 05:47:22;;;;;;;3.55;2.72;;;25.30;1.00;;;;;;5185864;28;20341;-71
2023/06/22 05:49:54;;;;;;;5.80;2.45;;;25.70;1.00;;;;;;5167595;28;20197;-73
2023/06/22 05:52:28;;;;;;;4.60;2.80;;;25.70;1.00;;;;;;5200608;28;20033;-72
2023/06/22 05:55:02;;;;;;;4.53;2.25;;;25.50;1.00;;;;;;5192565;28;20021;-72
2023/06/22 05:57:34;;;;;;;5.27;2.33;;;25.70;1.00;;;;;;5203450;28;20273;-71
2023/06/22 06:00:10;;;;;;;4.45;2.53;;;26.30;1.00;;;;;;5166667;28;20601;-70
2023/06/22 06:02:44;;;;;;;4.20;2.15;;;26.90;1.00;;;;;;5185779;28;20373;-72
2023/06/22 06:05:16;;;;;;;5.68;2.78;;;26.50;1.00;;;;;;5159695;28;20257;-72
2023/06/22 06:07:47;;;;;;;5.85;2.78;;;27.30;1.00;;;;;;5211514;28;20032;-72
2023/06/22 06:10:18;;;;;;;6.85;2.70;;;27.50;1.00;;;;;;5199586;28;20049;-71
2023/06/22 06:12:51;;;;;;;5.30;2.60;;;28.00;1.00;;;;;;5180421;28;20057;-72
2023/06/22 06:15:23;;;;;;;8.07;2.70;;;28.20;99.90;;;;;;5182245;28;20032;-72
2023/06/22 06:17:57;;;;;;;8.35;2.47;;;28.20;99.90;;;;;;5191637;28;20033;-73
2023/06/22 06:20:31;;;;;;;3.63;3.33;;;28.40;99.90;;;;;;5203044;28;20045;-74
2023/06/22 06:23:05;;;;;;;4.63;2.28;;;28.50;99.90;;;;;;5189265;28;20029;-72
2023/06/22 06:25:36;;;;;;;5.63;3.10;;;28.60;99.90;;;;;;5196688;28;20337;-73
2023/06/22 06:28:07;;;;;;;2.95;2.08;;;28.70;1.00;;;;;;5190281;28;20040;-73
2023/06/22 06:30:40;;;;;;;6.18;2.88;;;28.80;1.00;;;;;;5221314;28;20021;-71
2023/06/22 06:33:12;;;;;;;6.07;2.80;;;29.10;1.00;;;;;;5202579;28;20037;-72
2023/06/22 06:35:43;;;;;;;7.15;3.35;;;29.50;1.00;;;;;;5222729;28;20418;-72
2023/06/22 06:38:14;;;;;;;4.88;3.17;;;29.60;1.00;;;;;;5189715;28;20041;-71
2023/06/22 06:40:47;;;;;;;9.18;3.15;;;29.60;1.00;;;;;;5205295;28;20343;-73
2023/06/22 06:43:18;;;;;;;3.90;3.03;;;29.60;1.00;;;;;;5220753;28;20029;-73
2023/06/22 06:45:52;;;;;;;3.97;2.72;;;29.50;1.00;;;;;;5195167;28;20041;-72
2023/06/22 06:48:23;;;;;;;5.45;3.70;;;29.40;1.00;;;;;;5176528;28;20229;-71
2023/06/22 06:50:55;;;;;;;7.88;3.50;;;29.60;1.00;;;;;;5204752;28;20040;-72
2023/06/22 06:53:28;;;;;;;5.97;3.80;;;29.70;1.00;;;;;;5204964;28;20035;-71
2023/06/22 06:56:02;;;;;;;7.00;2.95;;;29.70;1.00;;;;;;5204318;28;20040;-75
2023/06/22 06:58:34;;;;;;;7.75;3.80;;;29.60;1.00;;;;;;5202146;28;20029;-73
2023/06/22 07:01:06;;;;;;;7.18;3.45;;;29.70;1.00;;;;;;5207763;28;20037;-73
2023/06/22 07:03:37;;;;;;;7.03;3.20;;;29.50;1.00;;;;;;5201515;28;20041;-72
2023/06/22 07:06:09;;;;;;;4.32;3.13;;;29.40;99.90;;;;;;5187647;28;20045;-71
2023/06/22 07:08:44;;;;;;;3.80;2.25;;;29.10;99.90;;;;;;5200350;28;20044;-72
2023/06/22 07:11:15;;;;;;;6.13;3.67;;;29.10;99.90;;;;;;5202890;28;20080;-71
2023/06/22 07:13:49;;;;;;;4.82;3.47;;;29.40;99.90;;;;;;5220939;28;20035;-71
2023/06/22 07:16:25;;;;;;;8.23;4.22;;;29.50;99.90;;;;;;5218091;28;20441;-72
2023/06/22 07:19:00;;;;;;;7.50;3.05;;;29.60;99.90;;;;;;5200456;28;20626;-72
2023/06/22 07:21:31;;;;;;;7.22;3.35;;;29.90;99.90;;;;;;5166534;28;20631;-72
2023/06/22 07:24:03;;;;;;;6.13;3.25;;;30.10;99.90;;;;;;5181160;28;20048;-73
2023/06/22 07:26:34;;;;;;;9.27;4.28;;;30.50;99.90;;;;;;5202256;28;20033;-72
2023/06/22 07:29:06;;;;;;;6.38;3.70;;;30.40;99.90;;;;;;5191604;28;20534;-72
2023/06/22 07:31:40;;;;;;;6.55;3.60;;;30.40;99.90;;;;;;5200361;28;20374;-72
2023/06/22 07:34:14;;;;;;;4.72;3.70;;;30.20;99.90;;;;;;5220746;28;20329;-73
2023/06/22 07:36:48;;;;;;;8.52;3.90;;;30.10;99.90;;;;;;5185547;28;20051;-73
2023/06/22 07:39:25;;;;;;;8.27;4.22;;;30.50;99.90;;;;;;5182070;28;20029;-73
2023/06/22 07:41:56;;;;;;;8.73;4.32;;;30.50;99.90;;;;;;5185196;28;20107;-72
2023/06/22 07:44:30;;;;;;;6.45;3.58;;;30.70;1.00;;;;;;5212146;28;20037;-72
2023/06/22 07:47:07;;;;;;;6.65;4.18;;;31.00;1.00;;;;;;5129741;28;20052;-71
2023/06/22 07:49:38;;;;;;;8.48;3.85;;;31.10;1.00;;;;;;5194490;28;20375;-71
2023/06/22 07:52:12;;;;;;;8.45;4.70;;;31.10;1.00;;;;;;5205835;28;20044;-73
2023/06/22 07:54:44;;;;;;;10.98;4.45;;;31.30;1.00;;;;;;5188610;28;20025;-71
2023/06/22 07:57:18;;;;;;;8.43;4.80;;;31.10;1.00;;;;;;5197881;28;20037;-73
2023/06/22 07:59:49;;;;;;;8.50;5.60;;;31.20;1.00;;;;;;5185406;28;20040;-72
2023/06/22 08:02:21;;;;;;;7.15;4.57;;;31.10;1.00;;;;;;5182387;28;20051;-72
2023/06/22 08:04:52;;;;;;;8.80;4.43;;;31.00;1.00;;;;;;5194722;28;20041;-72
2023/06/22 08:07:23;;;;;;;5.53;3.70;;;31.30;1.00;;;;;;5209646;28;20033;-73
2023/06/22 08:09:54;;;;;;;7.13;4.00;;;31.10;1.00;;;;;;5182537;28;20025;-73
2023/06/22 08:12:26;;;;;;;9.15;4.20;;;31.40;1.00;;;;;;5183720;28;20056;-72
2023/06/22 08:15:00;;;;;;;6.05;3.83;;;31.60;99.90;;;;;;5214763;28;20034;-72
2023/06/22 08:17:31;;;;;;;7.05;4.10;;;31.50;99.90;;;;;;5179678;28;20050;-73
2023/06/22 08:20:23;;;;;;;7.20;4.65;;;31.30;99.90;;;;;;5201750;28;20043;-73
2023/06/22 08:22:55;;;;;;;8.18;4.20;;;31.60;99.90;;;;;;5201393;28;20230;-71
2023/06/22 08:25:29;;;;;;;7.80;3.97;;;32.00;99.90;;;;;;5194049;28;20064;-72
2023/06/22 08:28:01;;;;;;;5.90;4.18;;;32.30;99.90;;;;;;5185654;28;20196;-72
2023/06/22 08:30:33;;;;;;;6.82;4.15;;;32.60;1.00;;;;;;5194785;28;20395;-72
2023/06/22 08:33:08;;;;;;;9.95;4.63;;;32.60;1.00;;;;;;5215745;28;20247;-72
2023/06/22 08:35:42;;;;;;;6.93;4.50;;;32.60;1.00;;;;;;5184546;28;20040;-72
2023/06/22 08:38:18;;;;;;;7.30;4.47;;;32.70;1.00;;;;;;5218457;28;20260;-74
2023/06/22 08:40:49;;;;;;;10.95;4.45;;;32.40;1.00;;;;;;5180141;28;20034;-72
2023/06/22 08:43:21;;;;;;;7.35;4.70;;;32.60;1.00;;;;;;5218147;28;20037;-73
2023/06/22 08:45:52;;;;;;;6.00;4.13;;;32.90;1.00;;;;;;5183111;28;20217;-73
2023/06/22 08:48:23;;;;;;;6.22;4.10;;;33.10;1.00;;;;;;5218683;28;20355;-73
2023/06/22 08:50:54;;;;;;;6.03;4.28;;;33.40;1.00;;;;;;5199061;28;20144;-71
2023/06/22 08:53:26;;;;;;;7.07;3.75;;;33.40;1.00;;;;;;5182185;28;20039;-72
2023/06/22 08:55:59;;;;;;;5.93;4.07;;;33.70;1.00;;;;;;5181967;28;20027;-74
2023/06/22 08:58:30;;;;;;;5.68;4.22;;;33.50;99.90;;;;;;5202833;28;20028;-71
2023/06/22 09:01:02;;;;;;;5.03;3.72;;;33.30;99.90;;;;;;5206637;28;20530;-71
2023/06/22 09:03:36;;;;;;;4.90;3.40;;;33.20;99.90;;;;;;5189835;28;20045;-72
2023/06/22 09:06:09;;;;;;;5.75;3.50;;;33.50;99.90;;;;;;5179977;28;20045;-73
2023/06/22 09:08:41;;;;;;;6.20;3.85;;;33.30;99.90;;;;;;5185204;28;20333;-73
2023/06/22 09:11:14;;;;;;;4.13;2.88;;;33.30;99.90;;;;;;5203901;28;20306;-72
2023/06/22 09:13:46;;;;;;;5.65;3.17;;;33.70;1.00;;;;;;5190278;28;20043;-72
2023/06/22 09:16:17;;;;;;;3.00;2.20;;;33.60;1.00;;;;;;5186493;28;20033;-72
2023/06/22 09:18:49;;;;;;;3.70;2.55;;;33.10;1.00;;;;;;5187302;28;20033;-73
2023/06/22 09:21:21;;;;;;;10.57;3.10;;;32.90;99.90;;;;;;5203687;28;20236;-71
2023/06/22 09:23:57;;;;;;;4.13;2.60;;;33.00;1.00;;;;;;5218581;28;20203;-72
2023/06/22 09:26:34;;;;;;;5.00;2.95;;;33.30;1.00;;;;;;5187973;28;20036;-72
2023/06/22 09:29:08;;;;;;;4.93;2.38;;;33.10;1.00;;;;;;5206297;28;20033;-72
2023/06/22 09:31:42;;;;;;;6.55;2.97;;;32.90;1.00;;;;;;5218785;28;20029;-73
2023/06/22 09:34:20;;;;;;;3.53;2.45;;;32.90;1.00;;;;;;5206900;28;20032;-71
2023/06/22 09:36:57;;;;;;;4.82;2.67;;;33.10;1.00;;;;;;5204166;28;20298;-73
2023/06/22 09:39:28;;;;;;;3.40;2.60;;;33.70;1.00;;;;;;5195347;28;20052;-73
2023/06/22 09:42:02;;;;;;;4.18;2.85;;;33.90;1.00;;;;;;5221095;28;20499;-72
2023/06/22 09:44:33;;;;;;;;;;;34.00;1.00;;;;;;5188383;28;20040;-73
2023/06/22 09:47:05;;;;;;;3.22;2.58;;;34.10;1.00;;;;;;5220822;28;19908;-74
2023/06/22 09:49:39;;;;;;;10.43;3.00;;;33.90;1.00;;;;;;5187869;28;20029;-73
2023/06/22 09:52:13;;;;;;;3.08;2.22;;;33.50;1.00;;;;;;5185179;28;20143;-72
2023/06/22 09:54:44;;;;;;;;;;;33.70;1.00;;;;;;5189068;28;20041;-73
2023/06/22 09:57:17;;;;;;;3.65;3.13;;;33.90;1.00;;;;;;5223067;28;19908;-73
2023/06/22 09:59:48;;;;;;;3.25;2.42;;;33.50;1.00;;;;;;5204359;28;20039;-72
2023/06/22 10:02:19;;;;;;;5.57;3.05;;;33.90;1.00;;;;;;5217694;28;20222;-71
2023/06/22 10:04:53;;;;;;;6.93;2.25;;;34.20;1.00;;;;;;5213151;28;21223;-72
2023/06/22 10:07:27;;;;;;;7.07;2.90;;;34.00;1.00;;;;;;5179325;28;20055;-72
2023/06/22 10:10:04;;;;;;;6.35;2.40;;;34.20;1.00;;;;;;5198400;28;20032;-72
2023/06/22 10:12:39;;;;;;;5.40;2.47;;;34.10;1.00;;;;;;5203717;28;20043;-72
2023/06/22 10:15:11;;;;;;;2.63;2.20;;;35.10;1.00;;;;;;5185308;28;20032;-72
2023/06/22 10:17:42;;;;;;;4.53;3.05;;;35.40;1.00;;;;;;5188483;28;20040;-72
2023/06/22 10:20:20;;;;;;;2.80;2.22;;;35.20;1.00;;;;;;5204735;28;20029;-72
2023/06/22 10:22:57;;;;;;;6.28;3.25;;;35.20;1.00;;;;;;5204064;28;20322;-72
2023/06/22 10:25:29;;;;;;;4.53;2.58;;;35.50;1.00;;;;;;5186495;28;20032;-72
2023/06/22 10:28:03;;;;;;;3.33;2.17;;;35.60;1.00;;;;;;5220636;28;20070;-72
2023/06/22 10:30:34;;;;;;;3.20;2.28;;;36.30;1.00;;;;;;5194008;28;20491;-72
2023/06/22 10:33:06;;;;;;;2.72;2.13;;;36.30;1.00;;;;;;5221863;28;20035;-72
2023/06/22 10:35:41;;;;;;;2.70;1.80;;;36.80;1.00;;;;;;5222226;28;20534;-73
2023/06/22 10:38:13;;;;;;;2.50;2.08;;;36.40;1.00;;;;;;5187415;28;20291;-73
2023/06/22 10:40:47;;;;;;;2.53;1.75;;;36.20;1.00;;;;;;5192123;28;20029;-73
2023/06/22 10:43:21;;;;;;;2.70;2.00;;;36.70;1.00;;;;;;5194835;28;20037;-72
2023/06/22 10:45:52;;;;;;;;;;;37.30;1.00;;;;;;5201824;28;20344;-74
2023/06/22 10:48:27;;;;;;;3.22;1.83;;;37.10;1.00;;;;;;5200000;28;19917;-73
2023/06/22 10:50:58;;;;;;;2.22;1.83;;;37.50;1.00;;;;;;5185338;28;20037;-72
2023/06/22 10:53:29;;;;;;;3.22;1.77;;;38.30;1.00;;;;;;5219011;28;20472;-72
2023/06/22 10:56:00;;;;;;;3.10;2.00;;;38.20;1.00;;;;;;5187058;28;20036;-73
2023/06/22 10:58:34;;;;;;;3.50;2.15;;;38.30;1.00;;;;;;5220968;28;20035;-72
2023/06/22 11:01:05;;;;;;;3.33;2.53;;;38.70;1.00;;;;;;5213350;28;20338;-72
2023/06/22 11:03:37;;;;;;;2.25;2.05;;;39.00;99.90;;;;;;5203644;28;20036;-73
2023/06/22 11:06:11;;;;;;;2.53;2.25;;;39.40;99.90;;;;;;5196348;28;20039;-73
2023/06/22 11:08:47;;;;;;;7.20;2.55;;;39.40;99.90;;;;;;5181678;28;20053;-72
2023/06/22 11:11:21;;;;;;;6.15;2.17;;;39.30;99.90;;;;;;5219818;28;20028;-72
2023/06/22 11:13:53;;;;;;;5.07;3.20;;;38.80;99.90;;;;;;5186245;28;20047;-72
2023/06/22 11:16:24;;;;;;;2.45;1.98;;;39.00;99.90;;;;;;5195493;28;20047;-74
2023/06/22 11:18:57;;;;;;;2.90;2.60;;;38.70;99.90;;;;;;5196824;28;20333;-72
2023/06/22 11:21:29;;;;;;;3.72;2.42;;;38.30;99.90;;;;;;5191659;28;20037;-72
2023/06/22 11:24:03;;;;;;;4.55;2.22;;;39.10;99.90;;;;;;5202517;28;20210;-72
2023/06/22 11:26:34;;;;;;;;;;;39.20;99.90;;;;;;5205203;28;20505;-72
2023/06/22 11:29:05;;;;;;;5.70;2.92;;;38.70;99.90;;;;;;5190358;28;19901;-71
2023/06/22 11:31:37;;;;;;;3.85;2.72;;;38.00;72.10;;;;;;5217457;28;20036;-72
2023/06/22 11:34:11;;;;;;;3.85;2.55;;;37.80;78.70;;;;;;5221607;28;20029;-72
2023/06/22 11:36:47;;;;;;;;;;;37.80;86.30;;;;;;5187289;28;20259;-73
2023/06/22 11:39:21;;;;;;;3.58;2.20;;;38.50;92.30;;;;;;5181324;28;20261;-72
2023/06/22 11:41:52;;;;;;;5.57;2.30;;;39.50;71.60;;;;;;5202457;28;20044;-72
2023/06/22 11:44:26;;;;;;;3.72;2.53;;;40.70;65.50;;;;;;5203500;28;20261;-72
2023/06/22 11:46:57;;;;;;;3.65;2.00;;;41.70;38.70;;;;;;5185559;28;20188;-74
2023/06/22 11:49:32;;;;;;;2.90;2.30;;;40.60;1.00;;;;;;5193776;28;20101;-72
2023/06/22 11:52:05;;;;;;;5.38;2.60;;;40.00;1.00;;;;;;5186077;28;20270;-73
2023/06/22 11:54:39;;;;;;;;;;;40.10;1.00;;;;;;5186582;28;20055;-73
2023/06/22 11:57:16;;;;;;;4.28;2.47;;;40.40;1.00;;;;;;5180906;28;19909;-72
2023/06/22 11:59:53;;;;;;;5.05;2.30;;;40.70;1.00;;;;;;5184030;28;20021;-73
2023/06/22 12:02:24;;;;;;;2.80;2.45;;;40.60;1.00;;;;;;5182366;28;20255;-72
2023/06/22 12:04:56;;;;;;;4.40;2.33;;;40.10;1.00;;;;;;5189898;28;20063;-72
2023/06/22 12:07:30;;;;;;;6.35;2.90;;;40.00;1.00;;;;;;5198728;28;20237;-75
2023/06/22 12:10:02;;;;;;;2.40;2.20;;;39.30;1.00;;;;;;5184679;28;20363;-72
2023/06/22 12:12:33;;;;;;;5.10;2.47;;;40.10;1.00;;;;;;5201932;28;20290;-74
2023/06/22 12:15:06;;;;;;;3.75;2.33;;;40.10;1.00;;;;;;5196953;28;20035;-72
2023/06/22 12:17:38;;;;;;;2.25;1.90;;;39.80;1.00;;;;;;5215939;28;20033;-73
2023/06/22 12:20:12;;;;;;;3.92;2.72;;;40.40;1.00;;;;;;5216981;28;20021;-72
2023/06/22 12:22:43;;;;;;;3.80;2.75;;;39.80;1.00;;;;;;5189553;28;20237;-73
2023/06/22 12:25:14;;;;;;;2.63;2.42;;;39.80;1.00;;;;;;5216034;28;20123;-72
2023/06/22 12:27:46;;;;;;;2.92;2.30;;;40.50;1.00;;;;;;5216285;28;20049;-73
2023/06/22 12:30:17;;;;;;;4.25;2.60;;;40.30;1.00;;;;;;5184902;28;20027;-73
2023/06/22 12:32:49;;;;;;;2.70;2.50;;;40.40;1.00;;;;;;5185280;28;20173;-73
2023/06/22 12:35:21;;;;;;;3.15;2.67;;;40.20;1.00;;;;;;5185171;28;20032;-74
2023/06/22 12:37:52;;;;;;;2.80;2.20;;;39.20;1.00;;;;;;5187605;28;20754;-72
2023/06/22 12:40:24;;;;;;;4.13;2.78;;;40.50;1.00;;;;;;5185048;28;20033;-71
2023/06/22 12:42:55;;;;;;;6.07;2.40;;;40.40;1.00;;;;;;5186018;28;20036;-72
2023/06/22 12:45:28;;;;;;;6.85;2.70;;;40.00;1.00;;;;;;5194499;28;20037;-72
2023/06/22 12:48:02;;;;;;;5.30;2.80;;;41.00;1.00;;;;;;5217618;28;20033;-72
2023/06/22 12:50:34;;;;;;;3.22;2.53;;;41.40;1.00;;;;;;5216270;28;20309;-72
2023/06/22 12:53:07;;;;;;;3.30;2.65;;;42.10;1.00;;;;;;5183045;28;20029;-73
2023/06/22 12:55:38;;;;;;;;;;;42.10;99.90;;;;;;5200373;28;20371;-72
2023/06/22 12:58:10;;;;;;;2.40;2.20;;;40.90;99.90;;;;;;5212768;28;19908;-73
2023/06/22 13:00:41;;;;;;;4.32;2.33;;;40.00;99.90;;;;;;5207979;28;20035;-72
2023/06/22 13:03:12;;;;;;;4.20;3.03;;;40.60;99.90;;;;;;5214866;28;20580;-73
2023/06/22 13:05:44;;;;;;;3.83;2.95;;;41.30;99.90;;;;;;5193198;28;20066;-73
2023/06/22 13:08:15;;;;;;;4.35;3.00;;;41.90;99.90;;;;;;5166016;28;20329;-72
2023/06/22 13:10:49;;;;;;;2.92;2.40;;;41.70;99.90;;;;;;5217031;28;20031;-73
2023/06/22 13:13:20;;;;;;;3.67;2.75;;;41.30;99.90;;;;;;5199061;28;20079;-71
2023/06/22 13:15:57;;;;;;;3.33;2.72;;;41.70;99.90;;;;;;5213042;28;20039;-72
2023/06/22 13:18:31;;;;;;;4.38;2.72;;;41.80;99.90;;;;;;5183009;28;20059;-72
2023/06/22 13:21:04;;;;;;;2.83;2.63;;;42.80;26.40;;;;;;5202618;28;20218;-73
2023/06/22 13:23:40;;;;;;;4.68;2.92;;;42.10;1.00;;;;;;5216500;28;20037;-72
2023/06/22 13:26:11;;;;;;;3.22;2.50;;;39.80;1.00;;;;;;5183213;28;20029;-73